sensor_id;sensor_type;location;lat;lon;timestamp;temperature;humidity
7934;DHT22;4012;48.896;9.192;2024-02-14T00:02:10;4.90;99.90
7934;DHT22;4012;48.896;9.192;2024-02-14T00:04:37;4.90;99.90
7934;DHT22;4012;48.896;9.192;2024-02-14T00:07:04;4.80;99.90
7934;DHT22;4012;48.896;9.192;2024-02-14T00:09:29;4.70;99.90
7934;DHT22;4012;48.896;9.192;2024-02-14T00:11:55;4.70;99.90
7934;DHT22;4012;48.896;9.192;2024-02-14T00:14:20;4.70;99.90
7934;DHT22;4012;48.896;9.192;2024-02-14T00:16:46;4.80;99.90
7934;DHT22;4012;48.896;9.192;2024-02-14T00:19:12;4.80;99.90
7934;DHT22;4012;48.896;9.192;2024-02-14T00:21:37;4.80;99.90
7934;DHT22;4012;48.896;9.192;2024-02-14T00:24:04;4.90;99.90
7934;DHT22;4012;48.896;9.192;2024-02-14T00:26:30;4.80;99.90
7934;DHT22;4012;48.896;9.192;2024-02-14T00:28:56;4.80;99.90
7934;DHT22;4012;48.896;9.192;2024-02-14T00:31:21;4.80;99.90
7934;DHT22;4012;48.896;9.192;2024-02-14T00:33:47;4.80;99.90
7934;DHT22;4012;48.896;9.192;2024-02-14T00:36:12;4.90;99.90
7934;DHT22;4012;48.896;9.192;2024-02-14T00:38:38;4.90;99.90
7934;DHT22;4012;48.896;9.192;2024-02-14T00:41:04;4.90;99.90
7934;DHT22;4012;48.896;9.192;2024-02-14T00:43:29;4.90;99.90
7934;DHT22;4012;48.896;9.192;2024-02-14T00:45:55;4.90;99.90
7934;DHT22;4012;48.896;9.192;2024-02-14T00:48:22;4.90;99.90
7934;DHT22;4012;48.896;9.192;2024-02-14T00:50:48;5.00;99.90
7934;DHT22;4012;48.896;9.192;2024-02-14T00:53:13;5.10;99.90
7934;DHT22;4012;48.896;9.192;2024-02-14T00:55:39;5.00;99.90
7934;DHT22;4012;48.896;9.192;2024-02-14T00:58:05;5.00;99.90
7934;DHT22;4012;48.896;9.192;2024-02-14T01:00:31;5.10;99.90
7934;DHT22;4012;48.896;9.192;2024-02-14T01:02:57;5.10;99.90
7934;DHT22;4012;48.896;9.192;2024-02-14T01:05:23;5.10;99.90
7934;DHT22;4012;48.896;9.192;2024-02-14T01:07:49;5.10;99.90
7934;DHT22;4012;48.896;9.192;2024-02-14T01:10:15;5.10;99.90
7934;DHT22;4012;48.896;9.192;2024-02-14T01:12:40;5.20;99.90
7934;DHT22;4012;48.896;9.192;2024-02-14T01:15:06;5.30;99.90
7934;DHT22;4012;48.896;9.192;2024-02-14T01:17:32;5.30;99.90
7934;DHT22;4012;48.896;9.192;2024-02-14T01:19:58;5.40;99.90
7934;DHT22;4012;48.896;9.192;2024-02-14T01:22:24;5.40;99.90
7934;DHT22;4012;48.896;9.192;2024-02-14T01:24:50;5.50;99.90
7934;DHT22;4012;48.896;9.192;2024-02-14T01:27:15;5.60;99.90
7934;DHT22;4012;48.896;9.192;2024-02-14T01:29:42;5.60;99.90
7934;DHT22;4012;48.896;9.192;2024-02-14T01:32:07;5.50;99.90
7934;DHT22;4012;48.896;9.192;2024-02-14T01:34:35;5.60;99.90
7934;DHT22;4012;48.896;9.192;2024-02-14T01:37:00;5.60;99.90
7934;DHT22;4012;48.896;9.192;2024-02-14T01:39:26;5.60;99.90
7934;DHT22;4012;48.896;9.192;2024-02-14T01:41:51;5.60;99.90
7934;DHT22;4012;48.896;9.192;2024-02-14T01:44:18;5.60;99.90
7934;DHT22;4012;48.896;9.192;2024-02-14T01:46:44;5.60;99.90
7934;DHT22;4012;48.896;9.192;2024-02-14T01:49:14;5.60;99.90
7934;DHT22;4012;48.896;9.192;2024-02-14T01:51:43;5.50;99.90
7934;DHT22;4012;48.896;9.192;2024-02-14T01:54:11;5.60;99.90
7934;DHT22;4012;48.896;9.192;2024-02-14T01:56:38;5.70;99.90
7934;DHT22;4012;48.896;9.192;2024-02-14T01:59:05;5.70;99.90
7934;DHT22;4012;48.896;9.192;2024-02-14T02:01:34;5.60;99.90
7934;DHT22;4012;48.896;9.192;2024-02-14T02:03:59;5.60;99.90
7934;DHT22;4012;48.896;9.192;2024-02-14T02:06:25;5.70;99.90
7934;DHT22;4012;48.896;9.192;2024-02-14T02:08:52;5.80;99.90
7934;DHT22;4012;48.896;9.192;2024-02-14T02:11:17;5.80;99.90
7934;DHT22;4012;48.896;9.192;2024-02-14T02:13:44;5.90;99.90
7934;DHT22;4012;48.896;9.192;2024-02-14T02:16:09;6.00;99.90
7934;DHT22;4012;48.896;9.192;2024-02-14T02:18:35;5.90;99.90
7934;DHT22;4012;48.896;9.192;2024-02-14T02:21:02;5.80;99.90
7934;DHT22;4012;48.896;9.192;2024-02-14T02:23:34;5.80;99.90
7934;DHT22;4012;48.896;9.192;2024-02-14T02:26:01;6.00;99.90
7934;DHT22;4012;48.896;9.192;2024-02-14T02:28:27;6.00;99.90
7934;DHT22;4012;48.896;9.192;2024-02-14T02:30:52;6.10;99.90
7934;DHT22;4012;48.896;9.192;2024-02-14T02:33:19;6.10;99.90
7934;DHT22;4012;48.896;9.192;2024-02-14T02:35:44;6.10;99.90
7934;DHT22;4012;48.896;9.192;2024-02-14T02:38:11;6.20;99.90
7934;DHT22;4012;48.896;9.192;2024-02-14T02:40:37;6.30;99.90
7934;DHT22;4012;48.896;9.192;2024-02-14T02:43:02;6.30;99.90
7934;DHT22;4012;48.896;9.192;2024-02-14T02:45:28;6.30;99.90
7934;DHT22;4012;48.896;9.192;2024-02-14T02:47:54;6.40;99.90
7934;DHT22;4012;48.896;9.192;2024-02-14T02:50:21;6.40;99.90
7934;DHT22;4012;48.896;9.192;2024-02-14T02:52:47;6.40;99.90
7934;DHT22;4012;48.896;9.192;2024-02-14T02:55:13;6.40;99.90
7934;DHT22;4012;48.896;9.192;2024-02-14T02:57:41;6.40;99.90
7934;DHT22;4012;48.896;9.192;2024-02-14T03:00:07;6.40;99.90
7934;DHT22;4012;48.896;9.192;2024-02-14T03:02:38;6.40;99.90
7934;DHT22;4012;48.896;9.192;2024-02-14T03:05:07;6.50;99.90
7934;DHT22;4012;48.896;9.192;2024-02-14T03:07:36;6.40;99.90
7934;DHT22;4012;48.896;9.192;2024-02-14T03:10:02;6.40;99.90
7934;DHT22;4012;48.896;9.192;2024-02-14T03:12:29;6.40;99.90
7934;DHT22;4012;48.896;9.192;2024-02-14T03:14:56;6.40;99.90
7934;DHT22;4012;48.896;9.192;2024-02-14T03:17:23;6.30;99.90
7934;DHT22;4012;48.896;9.192;2024-02-14T03:19:49;6.30;99.90
7934;DHT22;4012;48.896;9.192;2024-02-14T03:22:17;6.20;99.90
7934;DHT22;4012;48.896;9.192;2024-02-14T03:24:44;6.00;99.90
7934;DHT22;4012;48.896;9.192;2024-02-14T03:27:12;6.00;99.90
7934;DHT22;4012;48.896;9.192;2024-02-14T03:29:37;5.90;99.90
7934;DHT22;4012;48.896;9.192;2024-02-14T03:32:07;5.80;99.90
7934;DHT22;4012;48.896;9.192;2024-02-14T03:34:33;5.90;99.90
7934;DHT22;4012;48.896;9.192;2024-02-14T03:37:01;5.80;99.90
7934;DHT22;4012;48.896;9.192;2024-02-14T03:39:32;5.80;99.90
7934;DHT22;4012;48.896;9.192;2024-02-14T03:41:58;5.80;99.90
7934;DHT22;4012;48.896;9.192;2024-02-14T03:44:26;5.80;99.90
7934;DHT22;4012;48.896;9.192;2024-02-14T03:46:53;5.80;99.90
7934;DHT22;4012;48.896;9.192;2024-02-14T03:49:18;5.80;99.90
7934;DHT22;4012;48.896;9.192;2024-02-14T03:51:45;5.90;99.90
7934;DHT22;4012;48.896;9.192;2024-02-14T03:54:11;5.90;99.90
7934;DHT22;4012;48.896;9.192;2024-02-14T03:56:37;5.90;99.90
7934;DHT22;4012;48.896;9.192;2024-02-14T03:59:03;5.90;99.90
7934;DHT22;4012;48.896;9.192;2024-02-14T04:01:31;6.00;99.90
7934;DHT22;4012;48.896;9.192;2024-02-14T04:03:56;6.10;99.90
7934;DHT22;4012;48.896;9.192;2024-02-14T04:06:22;6.10;99.90
7934;DHT22;4012;48.896;9.192;2024-02-14T04:08:48;6.10;99.90
7934;DHT22;4012;48.896;9.192;2024-02-14T04:11:14;6.10;99.90
7934;DHT22;4012;48.896;9.192;2024-02-14T04:13:40;6.00;99.90
7934;DHT22;4012;48.896;9.192;2024-02-14T04:16:06;6.10;99.90
7934;DHT22;4012;48.896;9.192;2024-02-14T04:18:31;6.10;99.90
7934;DHT22;4012;48.896;9.192;2024-02-14T04:20:58;6.00;99.90
7934;DHT22;4012;48.896;9.192;2024-02-14T04:23:23;6.10;99.90
7934;DHT22;4012;48.896;9.192;2024-02-14T04:25:50;6.10;99.90
7934;DHT22;4012;48.896;9.192;2024-02-14T04:28:16;6.10;99.90
7934;DHT22;4012;48.896;9.192;2024-02-14T04:30:42;6.10;99.90
7934;DHT22;4012;48.896;9.192;2024-02-14T04:33:08;6.00;99.90
7934;DHT22;4012;48.896;9.192;2024-02-14T04:35:34;6.10;99.90
7934;DHT22;4012;48.896;9.192;2024-02-14T04:38:00;6.10;99.90
7934;DHT22;4012;48.896;9.192;2024-02-14T04:40:26;6.10;99.90
7934;DHT22;4012;48.896;9.192;2024-02-14T04:42:51;6.10;99.90
7934;DHT22;4012;48.896;9.192;2024-02-14T04:45:17;6.20;99.90
7934;DHT22;4012;48.896;9.192;2024-02-14T04:47:43;6.30;99.90
7934;DHT22;4012;48.896;9.192;2024-02-14T04:50:09;6.60;99.90
7934;DHT22;4012;48.896;9.192;2024-02-14T04:52:35;6.40;99.90
7934;DHT22;4012;48.896;9.192;2024-02-14T04:55:01;6.50;99.90
7934;DHT22;4012;48.896;9.192;2024-02-14T04:57:26;6.50;99.90
7934;DHT22;4012;48.896;9.192;2024-02-14T04:59:52;6.50;99.90
7934;DHT22;4012;48.896;9.192;2024-02-14T05:02:17;6.60;99.90
7934;DHT22;4012;48.896;9.192;2024-02-14T05:04:43;6.60;99.90
7934;DHT22;4012;48.896;9.192;2024-02-14T05:07:09;6.70;99.90
7934;DHT22;4012;48.896;9.192;2024-02-14T05:09:34;6.80;99.90
7934;DHT22;4012;48.896;9.192;2024-02-14T05:12:00;6.80;99.90
7934;DHT22;4012;48.896;9.192;2024-02-14T05:14:26;6.90;99.90
7934;DHT22;4012;48.896;9.192;2024-02-14T05:16:52;6.90;99.90
7934;DHT22;4012;48.896;9.192;2024-02-14T05:19:17;6.90;99.90
7934;DHT22;4012;48.896;9.192;2024-02-14T05:21:43;6.90;99.90
7934;DHT22;4012;48.896;9.192;2024-02-14T05:24:09;6.90;99.90
7934;DHT22;4012;48.896;9.192;2024-02-14T05:26:34;6.90;99.90
7934;DHT22;4012;48.896;9.192;2024-02-14T05:29:00;6.90;99.90
7934;DHT22;4012;48.896;9.192;2024-02-14T05:31:43;6.90;99.90
7934;DHT22;4012;48.896;9.192;2024-02-14T05:34:09;6.90;99.90
7934;DHT22;4012;48.896;9.192;2024-02-14T05:36:35;6.90;99.90
7934;DHT22;4012;48.896;9.192;2024-02-14T05:39:02;6.90;99.90
7934;DHT22;4012;48.896;9.192;2024-02-14T05:41:27;6.80;99.90
7934;DHT22;4012;48.896;9.192;2024-02-14T05:43:53;6.80;99.90
7934;DHT22;4012;48.896;9.192;2024-02-14T05:46:19;6.90;99.90
7934;DHT22;4012;48.896;9.192;2024-02-14T05:48:47;6.80;99.90
7934;DHT22;4012;48.896;9.192;2024-02-14T05:51:13;6.90;99.90
7934;DHT22;4012;48.896;9.192;2024-02-14T05:53:39;6.90;99.90
7934;DHT22;4012;48.896;9.192;2024-02-14T05:56:05;6.90;99.90
7934;DHT22;4012;48.896;9.192;2024-02-14T05:58:30;6.90;99.90
7934;DHT22;4012;48.896;9.192;2024-02-14T06:00:57;6.90;99.90
7934;DHT22;4012;48.896;9.192;2024-02-14T06:03:22;6.90;99.90
7934;DHT22;4012;48.896;9.192;2024-02-14T06:05:48;6.90;99.90
7934;DHT22;4012;48.896;9.192;2024-02-14T06:08:16;6.80;99.90
7934;DHT22;4012;48.896;9.192;2024-02-14T06:10:42;6.80;99.90
7934;DHT22;4012;48.896;9.192;2024-02-14T06:13:07;6.80;99.90
7934;DHT22;4012;48.896;9.192;2024-02-14T06:15:33;6.80;99.90
7934;DHT22;4012;48.896;9.192;2024-02-14T06:17:59;6.70;99.90
7934;DHT22;4012;48.896;9.192;2024-02-14T06:20:24;6.60;99.90
7934;DHT22;4012;48.896;9.192;2024-02-14T06:22:50;6.60;99.90
7934;DHT22;4012;48.896;9.192;2024-02-14T06:25:16;6.50;99.90
7934;DHT22;4012;48.896;9.192;2024-02-14T06:27:42;6.40;99.90
7934;DHT22;4012;48.896;9.192;2024-02-14T06:30:08;6.40;99.90
7934;DHT22;4012;48.896;9.192;2024-02-14T06:32:34;6.40;99.90
7934;DHT22;4012;48.896;9.192;2024-02-14T06:34:59;6.40;99.90
7934;DHT22;4012;48.896;9.192;2024-02-14T06:37:25;6.40;99.90
7934;DHT22;4012;48.896;9.192;2024-02-14T06:39:51;6.40;99.90
7934;DHT22;4012;48.896;9.192;2024-02-14T06:42:17;6.50;99.90
7934;DHT22;4012;48.896;9.192;2024-02-14T06:44:43;6.50;99.90
7934;DHT22;4012;48.896;9.192;2024-02-14T06:47:08;6.50;99.90
7934;DHT22;4012;48.896;9.192;2024-02-14T06:49:34;6.60;99.90
7934;DHT22;4012;48.896;9.192;2024-02-14T06:51:59;6.60;99.90
7934;DHT22;4012;48.896;9.192;2024-02-14T06:54:25;6.60;99.90
7934;DHT22;4012;48.896;9.192;2024-02-14T06:56:51;6.70;99.90
7934;DHT22;4012;48.896;9.192;2024-02-14T06:59:16;6.70;99.90
7934;DHT22;4012;48.896;9.192;2024-02-14T07:01:42;6.70;99.90
7934;DHT22;4012;48.896;9.192;2024-02-14T07:04:07;6.70;99.90
7934;DHT22;4012;48.896;9.192;2024-02-14T07:06:33;6.70;99.90
7934;DHT22;4012;48.896;9.192;2024-02-14T07:09:07;6.70;99.90
7934;DHT22;4012;48.896;9.192;2024-02-14T07:11:40;6.70;99.90
7934;DHT22;4012;48.896;9.192;2024-02-14T07:14:05;6.70;99.90
7934;DHT22;4012;48.896;9.192;2024-02-14T07:16:31;6.80;99.90
7934;DHT22;4012;48.896;9.192;2024-02-14T07:18:56;6.80;99.90
7934;DHT22;4012;48.896;9.192;2024-02-14T07:21:22;6.80;99.90
7934;DHT22;4012;48.896;9.192;2024-02-14T07:23:47;6.80;99.90
7934;DHT22;4012;48.896;9.192;2024-02-14T07:26:13;6.80;99.90
7934;DHT22;4012;48.896;9.192;2024-02-14T07:28:38;6.90;99.90
7934;DHT22;4012;48.896;9.192;2024-02-14T07:31:04;7.00;99.90
7934;DHT22;4012;48.896;9.192;2024-02-14T07:33:30;7.00;99.90
7934;DHT22;4012;48.896;9.192;2024-02-14T07:35:56;7.00;99.90
7934;DHT22;4012;48.896;9.192;2024-02-14T07:38:22;7.00;99.90
7934;DHT22;4012;48.896;9.192;2024-02-14T07:40:48;7.10;99.90
7934;DHT22;4012;48.896;9.192;2024-02-14T07:43:14;7.30;99.90
7934;DHT22;4012;48.896;9.192;2024-02-14T07:45:39;7.50;99.90
7934;DHT22;4012;48.896;9.192;2024-02-14T07:48:05;7.70;99.90
7934;DHT22;4012;48.896;9.192;2024-02-14T07:50:31;7.80;99.90
7934;DHT22;4012;48.896;9.192;2024-02-14T07:52:57;8.00;99.90
7934;DHT22;4012;48.896;9.192;2024-02-14T07:55:23;8.10;99.90
7934;DHT22;4012;48.896;9.192;2024-02-14T07:57:49;8.10;99.90
7934;DHT22;4012;48.896;9.192;2024-02-14T08:00:15;8.30;99.90
7934;DHT22;4012;48.896;9.192;2024-02-14T08:02:48;8.40;99.90
7934;DHT22;4012;48.896;9.192;2024-02-14T08:05:13;8.60;99.90
7934;DHT22;4012;48.896;9.192;2024-02-14T08:07:39;8.70;99.90
7934;DHT22;4012;48.896;9.192;2024-02-14T08:10:05;8.70;99.90
7934;DHT22;4012;48.896;9.192;2024-02-14T08:12:30;8.60;99.90
7934;DHT22;4012;48.896;9.192;2024-02-14T08:14:56;8.60;99.90
7934;DHT22;4012;48.896;9.192;2024-02-14T08:17:22;8.70;99.90
7934;DHT22;4012;48.896;9.192;2024-02-14T08:19:47;8.80;99.90
7934;DHT22;4012;48.896;9.192;2024-02-14T08:22:13;8.90;99.90
7934;DHT22;4012;48.896;9.192;2024-02-14T08:24:39;9.00;99.90
7934;DHT22;4012;48.896;9.192;2024-02-14T08:27:05;9.00;99.90
7934;DHT22;4012;48.896;9.192;2024-02-14T08:29:33;9.00;99.90
7934;DHT22;4012;48.896;9.192;2024-02-14T08:31:58;9.00;99.90
7934;DHT22;4012;48.896;9.192;2024-02-14T08:34:24;9.00;99.90
7934;DHT22;4012;48.896;9.192;2024-02-14T08:36:50;9.10;99.90
7934;DHT22;4012;48.896;9.192;2024-02-14T08:39:15;9.10;99.90
7934;DHT22;4012;48.896;9.192;2024-02-14T08:41:44;9.20;99.90
7934;DHT22;4012;48.896;9.192;2024-02-14T08:44:10;9.30;99.90
7934;DHT22;4012;48.896;9.192;2024-02-14T08:46:35;9.40;99.90
7934;DHT22;4012;48.896;9.192;2024-02-14T08:49:02;9.60;99.90
7934;DHT22;4012;48.896;9.192;2024-02-14T08:51:28;9.60;99.90
7934;DHT22;4012;48.896;9.192;2024-02-14T08:53:54;9.80;99.90
7934;DHT22;4012;48.896;9.192;2024-02-14T08:56:22;10.00;99.90
7934;DHT22;4012;48.896;9.192;2024-02-14T08:58:48;10.20;99.90
7934;DHT22;4012;48.896;9.192;2024-02-14T09:01:15;10.40;99.90
7934;DHT22;4012;48.896;9.192;2024-02-14T09:03:44;10.60;99.90
7934;DHT22;4012;48.896;9.192;2024-02-14T09:06:14;10.60;99.90
7934;DHT22;4012;48.896;9.192;2024-02-14T09:08:40;10.60;99.90
7934;DHT22;4012;48.896;9.192;2024-02-14T09:11:06;10.50;99.90
7934;DHT22;4012;48.896;9.192;2024-02-14T09:13:31;10.40;99.90
7934;DHT22;4012;48.896;9.192;2024-02-14T09:15:57;10.50;99.90
7934;DHT22;4012;48.896;9.192;2024-02-14T09:18:23;10.40;99.90
7934;DHT22;4012;48.896;9.192;2024-02-14T09:20:49;10.40;99.90
7934;DHT22;4012;48.896;9.192;2024-02-14T09:23:17;10.50;99.90
7934;DHT22;4012;48.896;9.192;2024-02-14T09:25:48;10.70;99.90
7934;DHT22;4012;48.896;9.192;2024-02-14T09:28:15;10.80;99.90
7934;DHT22;4012;48.896;9.192;2024-02-14T09:30:41;11.00;99.90
7934;DHT22;4012;48.896;9.192;2024-02-14T09:33:07;11.10;99.90
7934;DHT22;4012;48.896;9.192;2024-02-14T09:35:33;11.20;99.90
7934;DHT22;4012;48.896;9.192;2024-02-14T09:38:00;11.40;99.90
7934;DHT22;4012;48.896;9.192;2024-02-14T09:40:26;11.60;99.90
7934;DHT22;4012;48.896;9.192;2024-02-14T09:42:55;12.00;99.90
7934;DHT22;4012;48.896;9.192;2024-02-14T09:45:27;12.30;99.90
7934;DHT22;4012;48.896;9.192;2024-02-14T09:47:53;12.40;99.90
7934;DHT22;4012;48.896;9.192;2024-02-14T09:50:20;12.60;99.90
7934;DHT22;4012;48.896;9.192;2024-02-14T09:52:49;12.70;99.90
7934;DHT22;4012;48.896;9.192;2024-02-14T09:55:15;12.60;99.90
7934;DHT22;4012;48.896;9.192;2024-02-14T09:57:43;12.50;99.90
7934;DHT22;4012;48.896;9.192;2024-02-14T10:00:12;12.40;99.90
7934;DHT22;4012;48.896;9.192;2024-02-14T10:02:40;12.70;99.90
7934;DHT22;4012;48.896;9.192;2024-02-14T10:05:06;12.70;99.90
7934;DHT22;4012;48.896;9.192;2024-02-14T10:07:42;12.70;99.90
7934;DHT22;4012;48.896;9.192;2024-02-14T10:10:09;13.00;99.90
7934;DHT22;4012;48.896;9.192;2024-02-14T10:12:35;13.00;99.90
7934;DHT22;4012;48.896;9.192;2024-02-14T10:15:01;13.10;99.90
7934;DHT22;4012;48.896;9.192;2024-02-14T10:17:27;13.00;99.90
7934;DHT22;4012;48.896;9.192;2024-02-14T10:20:00;13.10;99.90
7934;DHT22;4012;48.896;9.192;2024-02-14T10:22:35;13.00;99.90
7934;DHT22;4012;48.896;9.192;2024-02-14T10:25:02;13.00;99.90
7934;DHT22;4012;48.896;9.192;2024-02-14T10:27:30;13.20;99.90
7934;DHT22;4012;48.896;9.192;2024-02-14T10:29:57;13.40;99.90
7934;DHT22;4012;48.896;9.192;2024-02-14T10:32:23;14.40;99.90
7934;DHT22;4012;48.896;9.192;2024-02-14T10:34:50;16.10;99.90
7934;DHT22;4012;48.896;9.192;2024-02-14T10:37:17;17.10;99.90
7934;DHT22;4012;48.896;9.192;2024-02-14T10:39:46;18.20;99.90
7934;DHT22;4012;48.896;9.192;2024-02-14T10:42:18;18.00;99.90
7934;DHT22;4012;48.896;9.192;2024-02-14T10:44:44;18.50;99.90
7934;DHT22;4012;48.896;9.192;2024-02-14T10:47:14;18.80;99.90
7934;DHT22;4012;48.896;9.192;2024-02-14T10:49:46;18.70;99.90
7934;DHT22;4012;48.896;9.192;2024-02-14T10:52:13;18.50;99.90
7934;DHT22;4012;48.896;9.192;2024-02-14T10:54:39;16.90;99.90
7934;DHT22;4012;48.896;9.192;2024-02-14T10:57:06;16.50;99.90
7934;DHT22;4012;48.896;9.192;2024-02-14T10:59:40;16.50;99.90
7934;DHT22;4012;48.896;9.192;2024-02-14T11:02:07;16.10;99.90
7934;DHT22;4012;48.896;9.192;2024-02-14T11:04:33;16.20;99.90
7934;DHT22;4012;48.896;9.192;2024-02-14T11:06:59;15.60;99.90
7934;DHT22;4012;48.896;9.192;2024-02-14T11:09:36;15.50;99.90
7934;DHT22;4012;48.896;9.192;2024-02-14T11:12:03;15.30;99.90
7934;DHT22;4012;48.896;9.192;2024-02-14T11:14:33;14.90;99.90
7934;DHT22;4012;48.896;9.192;2024-02-14T11:17:01;14.40;99.90
7934;DHT22;4012;48.896;9.192;2024-02-14T11:19:31;13.90;99.90
7934;DHT22;4012;48.896;9.192;2024-02-14T11:22:20;13.70;99.90
7934;DHT22;4012;48.896;9.192;2024-02-14T11:24:47;13.20;99.90
7934;DHT22;4012;48.896;9.192;2024-02-14T11:27:13;13.10;99.90
7934;DHT22;4012;48.896;9.192;2024-02-14T11:29:40;13.00;99.90
7934;DHT22;4012;48.896;9.192;2024-02-14T11:32:11;13.00;99.90
7934;DHT22;4012;48.896;9.192;2024-02-14T11:34:37;12.80;99.90
7934;DHT22;4012;48.896;9.192;2024-02-14T11:37:02;12.80;99.90
7934;DHT22;4012;48.896;9.192;2024-02-14T11:39:30;12.70;99.90
7934;DHT22;4012;48.896;9.192;2024-02-14T11:41:58;12.60;99.90
7934;DHT22;4012;48.896;9.192;2024-02-14T11:44:24;12.50;99.90
7934;DHT22;4012;48.896;9.192;2024-02-14T11:46:51;12.40;99.90
7934;DHT22;4012;48.896;9.192;2024-02-14T11:49:17;12.50;99.90
7934;DHT22;4012;48.896;9.192;2024-02-14T11:51:42;12.50;99.90
7934;DHT22;4012;48.896;9.192;2024-02-14T11:54:09;12.50;99.90
7934;DHT22;4012;48.896;9.192;2024-02-14T11:56:36;12.50;99.90
7934;DHT22;4012;48.896;9.192;2024-02-14T11:59:04;12.40;99.90
7934;DHT22;4012;48.896;9.192;2024-02-14T12:01:34;12.40;99.90
7934;DHT22;4012;48.896;9.192;2024-02-14T12:04:10;12.40;99.90
7934;DHT22;4012;48.896;9.192;2024-02-14T12:06:36;12.50;99.90
7934;DHT22;4012;48.896;9.192;2024-02-14T12:09:05;12.70;99.90
7934;DHT22;4012;48.896;9.192;2024-02-14T12:11:32;12.80;99.90
7934;DHT22;4012;48.896;9.192;2024-02-14T12:14:03;12.60;99.90
7934;DHT22;4012;48.896;9.192;2024-02-14T12:16:29;12.60;99.90
7934;DHT22;4012;48.896;9.192;2024-02-14T12:19:04;12.50;99.90
7934;DHT22;4012;48.896;9.192;2024-02-14T12:21:36;12.70;99.90
7934;DHT22;4012;48.896;9.192;2024-02-14T12:24:11;12.80;99.90
7934;DHT22;4012;48.896;9.192;2024-02-14T12:26:40;13.00;99.90
7934;DHT22;4012;48.896;9.192;2024-02-14T12:29:06;13.20;99.90
7934;DHT22;4012;48.896;9.192;2024-02-14T12:31:33;13.30;99.90
7934;DHT22;4012;48.896;9.192;2024-02-14T12:34:00;13.50;99.90
7934;DHT22;4012;48.896;9.192;2024-02-14T12:36:30;13.70;99.90
7934;DHT22;4012;48.896;9.192;2024-02-14T12:38:55;14.20;99.90
7934;DHT22;4012;48.896;9.192;2024-02-14T12:41:21;14.20;99.90
7934;DHT22;4012;48.896;9.192;2024-02-14T12:43:49;14.40;99.90
7934;DHT22;4012;48.896;9.192;2024-02-14T12:46:15;14.10;99.90
7934;DHT22;4012;48.896;9.192;2024-02-14T12:48:40;14.40;99.90
7934;DHT22;4012;48.896;9.192;2024-02-14T12:51:07;14.80;99.90
7934;DHT22;4012;48.896;9.192;2024-02-14T12:53:33;14.80;99.90
7934;DHT22;4012;48.896;9.192;2024-02-14T12:55:59;14.70;99.90
7934;DHT22;4012;48.896;9.192;2024-02-14T12:58:25;14.30;99.90
7934;DHT22;4012;48.896;9.192;2024-02-14T13:00:51;14.40;99.90
7934;DHT22;4012;48.896;9.192;2024-02-14T13:03:16;14.90;99.90
7934;DHT22;4012;48.896;9.192;2024-02-14T13:05:42;15.20;99.90
7934;DHT22;4012;48.896;9.192;2024-02-14T13:08:08;14.80;99.90
7934;DHT22;4012;48.896;9.192;2024-02-14T13:10:36;14.50;99.90
7934;DHT22;4012;48.896;9.192;2024-02-14T13:13:02;14.50;99.90
7934;DHT22;4012;48.896;9.192;2024-02-14T13:15:28;14.80;99.90
7934;DHT22;4012;48.896;9.192;2024-02-14T13:17:53;15.00;99.90
7934;DHT22;4012;48.896;9.192;2024-02-14T13:20:19;14.70;99.90
7934;DHT22;4012;48.896;9.192;2024-02-14T13:22:45;14.70;99.90
7934;DHT22;4012;48.896;9.192;2024-02-14T13:25:11;14.70;99.90
7934;DHT22;4012;48.896;9.192;2024-02-14T13:27:37;14.60;99.90
7934;DHT22;4012;48.896;9.192;2024-02-14T13:30:04;14.90;99.90
7934;DHT22;4012;48.896;9.192;2024-02-14T13:32:33;14.80;99.90
7934;DHT22;4012;48.896;9.192;2024-02-14T13:34:58;14.70;99.90
7934;DHT22;4012;48.896;9.192;2024-02-14T13:37:24;14.60;99.90
7934;DHT22;4012;48.896;9.192;2024-02-14T13:39:51;14.50;99.90
7934;DHT22;4012;48.896;9.192;2024-02-14T13:42:16;14.60;99.90
7934;DHT22;4012;48.896;9.192;2024-02-14T13:44:42;14.50;99.90
7934;DHT22;4012;48.896;9.192;2024-02-14T13:47:08;14.50;99.90
7934;DHT22;4012;48.896;9.192;2024-02-14T13:49:34;14.70;99.90
7934;DHT22;4012;48.896;9.192;2024-02-14T13:51:59;14.70;99.90
7934;DHT22;4012;48.896;9.192;2024-02-14T13:54:25;14.80;99.90
7934;DHT22;4012;48.896;9.192;2024-02-14T13:56:51;14.90;99.90
7934;DHT22;4012;48.896;9.192;2024-02-14T13:59:17;15.00;99.90
7934;DHT22;4012;48.896;9.192;2024-02-14T14:01:44;14.90;99.90
7934;DHT22;4012;48.896;9.192;2024-02-14T14:04:11;14.90;99.90
7934;DHT22;4012;48.896;9.192;2024-02-14T14:06:38;14.80;99.90
7934;DHT22;4012;48.896;9.192;2024-02-14T14:09:04;14.80;99.90
7934;DHT22;4012;48.896;9.192;2024-02-14T14:11:33;14.90;99.90
7934;DHT22;4012;48.896;9.192;2024-02-14T14:13:58;15.10;99.90
7934;DHT22;4012;48.896;9.192;2024-02-14T14:16:25;15.10;99.90
7934;DHT22;4012;48.896;9.192;2024-02-14T14:18:51;15.00;99.90
7934;DHT22;4012;48.896;9.192;2024-02-14T14:21:17;14.80;99.90
7934;DHT22;4012;48.896;9.192;2024-02-14T14:23:43;14.60;99.90
7934;DHT22;4012;48.896;9.192;2024-02-14T14:26:09;14.50;99.90
7934;DHT22;4012;48.896;9.192;2024-02-14T14:28:35;14.40;99.90
7934;DHT22;4012;48.896;9.192;2024-02-14T14:31:01;14.40;99.90
7934;DHT22;4012;48.896;9.192;2024-02-14T14:33:27;14.40;99.90
7934;DHT22;4012;48.896;9.192;2024-02-14T14:35:53;14.50;99.90
7934;DHT22;4012;48.896;9.192;2024-02-14T14:38:20;14.50;99.90
7934;DHT22;4012;48.896;9.192;2024-02-14T14:40:47;14.50;99.90
7934;DHT22;4012;48.896;9.192;2024-02-14T14:43:13;14.50;99.90
7934;DHT22;4012;48.896;9.192;2024-02-14T14:45:39;14.40;99.90
7934;DHT22;4012;48.896;9.192;2024-02-14T14:48:06;14.30;99.90
7934;DHT22;4012;48.896;9.192;2024-02-14T14:50:33;14.30;99.90
7934;DHT22;4012;48.896;9.192;2024-02-14T14:52:58;14.10;99.90
7934;DHT22;4012;48.896;9.192;2024-02-14T14:55:25;14.10;99.90
7934;DHT22;4012;48.896;9.192;2024-02-14T14:57:50;14.10;99.90
7934;DHT22;4012;48.896;9.192;2024-02-14T15:00:17;14.20;99.90
7934;DHT22;4012;48.896;9.192;2024-02-14T15:02:43;14.10;99.90
7934;DHT22;4012;48.896;9.192;2024-02-14T15:05:10;14.20;99.90
7934;DHT22;4012;48.896;9.192;2024-02-14T15:07:40;14.30;99.90
7934;DHT22;4012;48.896;9.192;2024-02-14T15:10:06;14.20;99.90
7934;DHT22;4012;48.896;9.192;2024-02-14T15:12:33;14.20;99.90
7934;DHT22;4012;48.896;9.192;2024-02-14T15:15:04;14.00;99.90
7934;DHT22;4012;48.896;9.192;2024-02-14T15:17:30;13.90;99.90
7934;DHT22;4012;48.896;9.192;2024-02-14T15:19:56;14.00;99.90
7934;DHT22;4012;48.896;9.192;2024-02-14T15:22:25;14.00;99.90
7934;DHT22;4012;48.896;9.192;2024-02-14T15:24:53;13.90;99.90
7934;DHT22;4012;48.896;9.192;2024-02-14T15:27:19;14.00;99.90
7934;DHT22;4012;48.896;9.192;2024-02-14T15:29:51;14.00;99.90
7934;DHT22;4012;48.896;9.192;2024-02-14T15:32:36;14.00;99.90
7934;DHT22;4012;48.896;9.192;2024-02-14T15:35:20;14.10;99.90
7934;DHT22;4012;48.896;9.192;2024-02-14T15:37:46;14.10;99.90
7934;DHT22;4012;48.896;9.192;2024-02-14T15:40:15;14.10;99.90
7934;DHT22;4012;48.896;9.192;2024-02-14T15:42:42;14.10;99.90
7934;DHT22;4012;48.896;9.192;2024-02-14T15:45:08;14.10;99.90
7934;DHT22;4012;48.896;9.192;2024-02-14T15:47:35;14.10;99.90
7934;DHT22;4012;48.896;9.192;2024-02-14T15:50:01;14.00;99.90
7934;DHT22;4012;48.896;9.192;2024-02-14T15:52:26;14.00;99.90
7934;DHT22;4012;48.896;9.192;2024-02-14T15:54:52;13.60;99.90
7934;DHT22;4012;48.896;9.192;2024-02-14T15:57:19;13.40;99.90
7934;DHT22;4012;48.896;9.192;2024-02-14T15:59:45;13.30;99.90
7934;DHT22;4012;48.896;9.192;2024-02-14T16:02:13;13.20;99.90
7934;DHT22;4012;48.896;9.192;2024-02-14T16:04:42;13.20;99.90
7934;DHT22;4012;48.896;9.192;2024-02-14T16:07:08;13.10;99.90